createdAt,value
2023-09-02T00:00:29.084Z,17.30
2023-09-02T00:01:29.142Z,15.60
2023-09-02T00:02:29.103Z,15.10
2023-09-02T00:03:29.095Z,14.70
2023-09-02T00:04:29.016Z,16.30
2023-09-02T00:05:29.077Z,16.70
2023-09-02T00:06:29.011Z,15.60
2023-09-02T00:07:28.990Z,15.30
2023-09-02T00:08:28.981Z,15.80
2023-09-02T00:09:28.974Z,13.10
2023-09-02T00:10:28.954Z,16.00
2023-09-02T00:11:28.962Z,14.90
2023-09-02T00:12:28.941Z,14.70
2023-09-02T00:13:28.926Z,15.20
2023-09-02T00:14:28.909Z,15.10
2023-09-02T00:15:28.922Z,17.30
2023-09-02T00:16:28.986Z,15.50
2023-09-02T00:17:28.919Z,16.30
2023-09-02T00:18:28.924Z,16.40
2023-09-02T00:19:28.867Z,15.30
2023-09-02T00:20:28.867Z,16.30
2023-09-02T00:21:28.908Z,14.10
2023-09-02T00:22:28.824Z,14.70
2023-09-02T00:23:28.812Z,12.30
2023-09-02T00:24:28.816Z,17.10
2023-09-02T00:25:28.880Z,16.10
2023-09-02T00:26:28.776Z,16.90
2023-09-02T00:27:28.853Z,17.50
2023-09-02T00:28:28.768Z,14.10
2023-09-02T00:29:28.771Z,13.90
2023-09-02T00:30:28.775Z,17.70
2023-09-02T00:31:28.798Z,15.00
2023-09-02T00:32:28.740Z,15.70
2023-09-02T00:33:28.729Z,15.30
2023-09-02T00:34:28.717Z,17.80
2023-09-02T00:35:28.693Z,14.00
2023-09-02T00:36:28.685Z,15.90
2023-09-02T00:37:28.700Z,15.20
2023-09-02T00:38:28.682Z,14.40
2023-09-02T00:39:28.641Z,15.20
2023-09-02T00:40:28.645Z,15.50
2023-09-02T00:41:28.631Z,15.30
2023-09-02T00:42:28.613Z,15.10
2023-09-02T00:43:28.627Z,16.00
2023-09-02T00:44:28.600Z,17.20
2023-09-02T00:45:28.634Z,15.50
2023-09-02T00:46:28.624Z,14.20
2023-09-02T00:47:28.600Z,16.00
2023-09-02T00:48:28.576Z,14.90
2023-09-02T00:49:28.557Z,16.90
2023-09-02T00:50:28.565Z,17.10
2023-09-02T00:51:29.034Z,15.90
2023-09-02T00:52:28.515Z,14.40
2023-09-02T00:53:28.512Z,15.80
2023-09-02T00:54:28.597Z,16.20
2023-09-02T00:55:28.472Z,14.60
2023-09-02T00:56:28.470Z,17.70
2023-09-02T00:57:28.442Z,16.20
2023-09-02T00:58:28.447Z,14.70
2023-09-02T00:59:28.469Z,16.80
2023-09-02T01:00:28.424Z,13.70
2023-09-02T01:01:28.465Z,13.60
2023-09-02T01:02:28.547Z,14.50
2023-09-02T01:03:28.556Z,18.60
2023-09-02T01:04:28.393Z,14.60
2023-09-02T01:05:28.362Z,17.30
2023-09-02T01:06:28.366Z,14.80
2023-09-02T01:07:28.354Z,17.00
2023-09-02T01:08:28.346Z,15.10
2023-09-02T01:09:28.337Z,13.60
2023-09-02T01:10:28.320Z,14.80
2023-09-02T01:11:28.332Z,15.60
2023-09-02T01:12:28.305Z,14.50
2023-09-02T01:13:28.294Z,15.10
2023-09-02T01:14:28.282Z,16.70
2023-09-02T01:15:28.277Z,14.10
2023-09-02T01:16:28.283Z,13.70
2023-09-02T01:17:28.283Z,15.20
2023-09-02T01:18:28.251Z,13.00
2023-09-02T01:19:28.229Z,16.00
2023-09-02T01:20:28.210Z,14.20
2023-09-02T01:21:28.213Z,17.50
2023-09-02T01:22:28.198Z,14.80
2023-09-02T01:23:28.168Z,13.70
2023-09-02T01:24:28.211Z,15.50
2023-09-02T01:25:28.154Z,15.00
2023-09-02T01:26:28.140Z,14.80
2023-09-02T01:27:28.136Z,12.50
2023-09-02T01:28:28.133Z,14.00
2023-09-02T01:29:28.105Z,13.30
2023-09-02T01:30:28.128Z,14.90
2023-09-02T01:31:28.095Z,14.00
2023-09-02T01:32:28.150Z,13.50
2023-09-02T01:33:28.078Z,14.10
2023-09-02T01:34:28.055Z,14.00
2023-09-02T01:35:28.060Z,15.00
2023-09-02T01:36:28.045Z,15.10
2023-09-02T01:37:28.028Z,16.30
2023-09-02T01:38:28.042Z,14.60
2023-09-02T01:39:28.004Z,14.60
2023-09-02T01:40:28.018Z,14.00
2023-09-02T01:41:27.984Z,14.60
2023-09-02T01:42:27.978Z,14.50
2023-09-02T01:43:27.978Z,15.80
2023-09-02T01:44:27.948Z,15.90
2023-09-02T01:45:27.973Z,15.60
2023-09-02T01:46:27.997Z,15.60
2023-09-02T01:47:27.944Z,13.90
2023-09-02T01:48:27.907Z,13.60
2023-09-02T01:49:27.896Z,13.90
2023-09-02T01:50:27.893Z,13.40
2023-09-02T01:51:27.894Z,14.40
2023-09-02T01:52:27.863Z,13.40
2023-09-02T01:53:27.859Z,16.00
2023-09-02T01:54:30.551Z,15.40
2023-09-02T01:55:27.837Z,13.60
2023-09-02T01:56:27.880Z,15.30
2023-09-02T01:57:27.819Z,15.20
2023-09-02T01:58:27.815Z,16.00
2023-09-02T01:59:27.824Z,14.90
2023-09-02T02:00:27.887Z,12.60
2023-09-02T02:01:27.836Z,13.70
2023-09-02T02:02:27.838Z,14.10
2023-09-02T02:03:27.878Z,15.40
2023-09-02T02:04:27.746Z,15.80
2023-09-02T02:05:27.731Z,13.50
2023-09-02T02:06:27.753Z,12.60
2023-09-02T02:07:27.737Z,15.00
2023-09-02T02:08:27.707Z,16.10
2023-09-02T02:09:27.684Z,15.20
2023-09-02T02:10:27.674Z,15.50
2023-09-02T02:11:27.664Z,15.00
2023-09-02T02:12:27.678Z,14.60
2023-09-02T02:13:27.634Z,15.10
2023-09-02T02:14:27.637Z,12.90
2023-09-02T02:15:27.634Z,15.90
2023-09-02T02:16:27.640Z,14.40
2023-09-02T02:17:27.671Z,13.60
2023-09-02T02:18:27.597Z,14.00
2023-09-02T02:19:27.576Z,17.10
2023-09-02T02:20:27.588Z,13.20
2023-09-02T02:21:27.572Z,12.90
2023-09-02T02:22:27.585Z,15.10
2023-09-02T02:23:27.576Z,14.60
2023-09-02T02:24:27.551Z,13.40
2023-09-02T02:25:27.512Z,15.80
2023-09-02T02:26:27.507Z,14.70
2023-09-02T02:27:27.553Z,13.90
2023-09-02T02:28:27.476Z,14.20
2023-09-02T02:29:27.470Z,14.00
2023-09-02T02:30:27.477Z,12.50
2023-09-02T02:31:27.455Z,13.30
2023-09-02T02:32:27.511Z,13.30
2023-09-02T02:33:27.438Z,13.30
2023-09-02T02:34:27.424Z,15.60
2023-09-02T02:35:27.429Z,16.30
2023-09-02T02:36:27.408Z,14.20
2023-09-02T02:37:27.403Z,14.90
2023-09-02T02:38:27.378Z,12.90
2023-09-02T02:39:27.384Z,14.90
2023-09-02T02:40:27.358Z,14.30
2023-09-02T02:41:27.367Z,12.70
2023-09-02T02:42:27.345Z,13.80
2023-09-02T02:43:27.416Z,15.40
2023-09-02T02:44:27.316Z,13.80
2023-09-02T02:45:27.300Z,16.50
2023-09-02T02:46:27.308Z,14.20
2023-09-02T02:47:27.283Z,12.20
2023-09-02T02:48:27.279Z,14.90
2023-09-02T02:49:27.266Z,14.70
2023-09-02T02:50:27.251Z,13.30
2023-09-02T02:51:27.239Z,14.90
2023-09-02T02:52:27.234Z,14.30
2023-09-02T02:53:27.223Z,11.80
2023-09-02T02:54:27.605Z,14.50
2023-09-02T02:55:27.200Z,13.70
2023-09-02T02:56:27.205Z,14.40
2023-09-02T02:57:27.303Z,13.90
2023-09-02T02:58:27.189Z,14.70
2023-09-02T02:59:27.165Z,14.80
2023-09-02T03:00:27.159Z,13.50
2023-09-02T03:01:27.181Z,14.00
2023-09-02T03:02:27.274Z,14.90
2023-09-02T03:03:27.167Z,16.00
2023-09-02T03:04:27.169Z,14.10
2023-09-02T03:05:27.111Z,14.40
2023-09-02T03:06:27.078Z,13.90
2023-09-02T03:07:27.071Z,15.00
2023-09-02T03:08:27.079Z,14.60
2023-09-02T03:09:27.157Z,16.10
2023-09-02T03:10:27.077Z,14.80
2023-09-02T03:11:27.027Z,14.50
2023-09-02T03:12:27.049Z,15.30
2023-09-02T03:13:27.007Z,16.40
2023-09-02T03:14:27.006Z,15.50
2023-09-02T03:15:27.066Z,13.00
2023-09-02T03:16:26.976Z,15.60
2023-09-02T03:17:27.027Z,15.40
2023-09-02T03:18:26.966Z,12.50
2023-09-02T03:19:26.946Z,15.20
2023-09-02T03:20:26.946Z,14.20
2023-09-02T03:21:26.938Z,17.20
2023-09-02T03:22:26.981Z,13.30
2023-09-02T03:23:26.902Z,15.30
2023-09-02T03:24:26.897Z,12.70
2023-09-02T03:25:26.879Z,13.80
2023-09-02T03:26:26.880Z,15.10
2023-09-02T03:27:26.862Z,17.60
2023-09-02T03:28:26.855Z,17.10
2023-09-02T03:29:26.839Z,13.20
2023-09-02T03:30:26.828Z,15.30
2023-09-02T03:31:26.985Z,14.70
2023-09-02T03:32:26.970Z,15.70
2023-09-02T03:33:26.794Z,13.50
2023-09-02T03:34:26.786Z,12.80
2023-09-02T03:35:26.777Z,12.80
2023-09-02T03:36:26.796Z,13.70
2023-09-02T03:37:26.747Z,13.70
2023-09-02T03:38:26.769Z,13.80
2023-09-02T03:39:26.733Z,13.00
2023-09-02T03:40:26.752Z,14.40
2023-09-02T03:41:26.762Z,13.20
2023-09-02T03:42:26.693Z,15.90
2023-09-02T03:43:26.700Z,14.60
2023-09-02T03:44:26.693Z,14.40
2023-09-02T03:45:26.679Z,13.20
2023-09-02T03:46:26.736Z,12.70
2023-09-02T03:47:26.708Z,12.60
2023-09-02T03:48:26.675Z,14.00
2023-09-02T03:49:26.654Z,14.80
2023-09-02T03:50:26.620Z,12.70
2023-09-02T03:51:26.611Z,14.60
2023-09-02T03:52:26.629Z,14.50
2023-09-02T03:53:26.577Z,14.90
2023-09-02T03:54:26.587Z,11.90
2023-09-02T03:55:26.538Z,15.70
2023-09-02T03:56:26.561Z,13.80
2023-09-02T03:57:26.542Z,14.10
2023-09-02T03:58:26.585Z,16.70
2023-09-02T03:59:26.525Z,11.60
2023-09-02T04:00:26.517Z,14.00
2023-09-02T04:01:26.604Z,14.50
2023-09-02T04:02:26.593Z,14.50
2023-09-02T04:03:26.620Z,13.20
2023-09-02T04:04:26.484Z,11.70
2023-09-02T04:05:26.464Z,15.50
2023-09-02T04:06:26.444Z,15.70
2023-09-02T04:07:26.429Z,13.10
2023-09-02T04:08:26.423Z,14.00
2023-09-02T04:09:26.446Z,14.00
2023-09-02T04:10:26.396Z,14.80
2023-09-02T04:11:26.423Z,13.00
2023-09-02T04:12:26.388Z,15.20
2023-09-02T04:13:26.363Z,16.20
2023-09-02T04:14:26.388Z,16.60
2023-09-02T04:15:26.336Z,13.50
2023-09-02T04:16:26.330Z,14.50
2023-09-02T04:17:26.346Z,16.00
2023-09-02T04:18:26.397Z,12.90
2023-09-02T04:19:26.296Z,14.60
2023-09-02T04:20:26.302Z,14.00
2023-09-02T04:21:26.268Z,14.30
2023-09-02T04:22:26.258Z,16.20
2023-09-02T04:23:26.260Z,17.80
2023-09-02T04:24:26.248Z,15.90
2023-09-02T04:25:26.235Z,16.80
2023-09-02T04:26:26.269Z,15.90
2023-09-02T04:27:26.229Z,16.10
2023-09-02T04:28:26.231Z,14.20
2023-09-02T04:29:26.195Z,16.00
2023-09-02T04:30:26.185Z,14.90
2023-09-02T04:31:26.199Z,15.90
2023-09-02T04:32:26.265Z,13.40
2023-09-02T04:33:26.205Z,16.40
2023-09-02T04:34:26.139Z,14.90
2023-09-02T04:35:26.140Z,14.60
2023-09-02T04:36:26.143Z,14.90
2023-09-02T04:37:26.107Z,13.80
2023-09-02T04:38:26.116Z,13.80
2023-09-02T04:39:26.085Z,15.10
2023-09-02T04:40:26.085Z,15.60
2023-09-02T04:41:26.090Z,17.00
2023-09-02T04:42:26.080Z,14.40
2023-09-02T04:43:26.044Z,16.10
2023-09-02T04:44:26.068Z,16.40
2023-09-02T04:45:26.044Z,14.30
2023-09-02T04:46:26.066Z,14.30
2023-09-02T04:47:26.021Z,16.60
2023-09-02T04:48:26.017Z,14.50
2023-09-02T04:49:25.972Z,17.60
2023-09-02T04:50:26.060Z,15.40
2023-09-02T04:51:25.993Z,15.30
2023-09-02T04:52:25.970Z,15.20
2023-09-02T04:53:25.956Z,16.50
2023-09-02T04:54:25.920Z,17.10
2023-09-02T04:55:25.938Z,18.50
2023-09-02T04:56:25.927Z,14.40
2023-09-02T04:57:25.934Z,15.30
2023-09-02T04:58:26.131Z,17.80
2023-09-02T04:59:25.878Z,15.60
2023-09-02T05:00:25.897Z,18.70
2023-09-02T05:01:25.994Z,16.60
2023-09-02T05:02:25.960Z,15.10
2023-09-02T05:03:25.889Z,14.60
2023-09-02T05:04:25.876Z,14.90
2023-09-02T05:05:25.908Z,15.70
2023-09-02T05:06:25.885Z,14.50
2023-09-02T05:07:25.867Z,16.80
2023-09-02T05:08:25.851Z,17.30
2023-09-02T05:09:25.909Z,13.70
2023-09-02T05:10:25.744Z,15.60
2023-09-02T05:11:25.781Z,15.10
2023-09-02T05:12:25.743Z,13.90
2023-09-02T05:13:25.749Z,14.70
2023-09-02T05:14:25.719Z,15.40
2023-09-02T05:15:25.711Z,15.50
2023-09-02T05:16:25.733Z,18.70
2023-09-02T05:17:25.796Z,16.90
2023-09-02T05:18:25.683Z,18.80
2023-09-02T05:19:25.683Z,20.10
2023-09-02T05:20:25.657Z,16.20
2023-09-02T05:21:25.666Z,15.30
2023-09-02T05:22:25.635Z,14.50
2023-09-02T05:23:25.672Z,17.80
2023-09-02T05:24:25.613Z,15.70
2023-09-02T05:25:25.602Z,16.80
2023-09-02T05:26:25.617Z,17.80
2023-09-02T05:27:25.579Z,18.00
2023-09-02T05:28:25.618Z,17.40
2023-09-02T05:29:25.571Z,15.90
2023-09-02T05:30:25.559Z,14.60
2023-09-02T05:31:25.655Z,16.60
2023-09-02T05:32:25.660Z,15.60
2023-09-02T05:33:25.548Z,15.80
2023-09-02T05:34:25.531Z,15.40
2023-09-02T05:35:25.508Z,15.00
2023-09-02T05:36:25.476Z,16.50
2023-09-02T05:37:25.516Z,16.40
2023-09-02T05:38:25.475Z,17.10
2023-09-02T05:39:25.487Z,18.50
2023-09-02T05:40:27.912Z,16.40
2023-09-02T05:41:25.444Z,14.40
2023-09-02T05:42:25.424Z,16.60
2023-09-02T05:43:25.437Z,16.80
2023-09-02T05:44:25.426Z,17.70
2023-09-02T05:45:25.432Z,16.50
2023-09-02T05:46:25.365Z,13.60
2023-09-02T05:47:25.386Z,18.10
2023-09-02T05:48:25.388Z,14.70
2023-09-02T05:49:25.347Z,17.00
2023-09-02T05:50:25.414Z,19.80
2023-09-02T05:51:25.356Z,14.50
2023-09-02T05:52:25.338Z,18.30
2023-09-02T05:53:25.330Z,17.40
2023-09-02T05:54:25.287Z,17.60
2023-09-02T05:55:25.297Z,17.60
2023-09-02T05:56:25.279Z,17.70
2023-09-02T05:57:25.258Z,17.30
2023-09-02T05:58:25.246Z,17.00
2023-09-02T05:59:25.247Z,15.00
2023-09-02T06:00:25.424Z,16.10
2023-09-02T06:01:25.286Z,14.80
2023-09-02T06:02:25.230Z,15.00
2023-09-02T06:03:25.227Z,15.30
2023-09-02T06:04:25.204Z,17.60
2023-09-02T06:05:25.176Z,16.10
2023-09-02T06:06:25.194Z,15.60
2023-09-02T06:07:25.181Z,20.20
2023-09-02T06:08:25.165Z,15.30
2023-09-02T06:09:25.136Z,18.10
2023-09-02T06:10:25.121Z,17.00
2023-09-02T06:11:25.119Z,16.80
2023-09-02T06:12:25.138Z,17.30
2023-09-02T06:13:25.112Z,16.70
2023-09-02T06:14:25.077Z,17.40
2023-09-02T06:15:25.086Z,18.00
2023-09-02T06:16:25.061Z,19.60
2023-09-02T06:17:25.101Z,18.20
2023-09-02T06:18:25.028Z,20.90
2023-09-02T06:19:25.026Z,17.30
2023-09-02T06:20:25.023Z,18.30
2023-09-02T06:21:25.009Z,20.00
2023-09-02T06:22:25.018Z,17.40
2023-09-02T06:23:25.007Z,21.20
2023-09-02T06:24:24.983Z,21.20
2023-09-02T06:25:24.970Z,17.30
2023-09-02T06:26:24.957Z,19.40
2023-09-02T06:27:24.959Z,19.00
2023-09-02T06:28:24.952Z,20.30
2023-09-02T06:29:24.917Z,18.50
2023-09-02T06:30:24.913Z,18.30
2023-09-02T06:31:26.643Z,18.40
2023-09-02T06:32:25.669Z,19.90
2023-09-02T06:33:24.893Z,20.10
2023-09-02T06:34:24.895Z,18.70
2023-09-02T06:35:24.853Z,18.40
2023-09-02T06:36:24.862Z,16.60
2023-09-02T06:37:24.854Z,20.60
2023-09-02T06:38:24.814Z,18.60
2023-09-02T06:39:24.820Z,17.70
2023-09-02T06:40:24.848Z,17.80
2023-09-02T06:41:24.836Z,16.20
2023-09-02T06:42:24.803Z,18.40
2023-09-02T06:43:24.813Z,17.10
2023-09-02T06:44:24.765Z,18.60
2023-09-02T06:45:24.744Z,15.40
2023-09-02T06:46:24.884Z,19.60
2023-09-02T06:47:24.788Z,20.20
2023-09-02T06:48:26.263Z,16.80
2023-09-02T06:49:24.750Z,19.40
2023-09-02T06:50:24.690Z,19.00
2023-09-02T06:51:24.697Z,17.50
2023-09-02T06:52:24.668Z,18.10
2023-09-02T06:53:24.667Z,16.50
2023-09-02T06:54:24.710Z,17.30
2023-09-02T06:55:24.640Z,15.30
2023-09-02T06:56:24.634Z,15.50
2023-09-02T06:57:24.623Z,17.40
2023-09-02T06:58:24.603Z,15.00
2023-09-02T06:59:24.599Z,17.10
2023-09-02T07:00:24.606Z,15.80
2023-09-02T07:01:24.731Z,16.60
2023-09-02T07:02:24.617Z,13.40
2023-09-02T07:03:24.668Z,15.20
2023-09-02T07:04:24.543Z,15.40
2023-09-02T07:05:24.547Z,16.50
2023-09-02T07:06:24.727Z,16.60
2023-09-02T07:07:24.529Z,16.40
2023-09-02T07:08:24.502Z,15.30
2023-09-02T07:09:24.486Z,15.30
2023-09-02T07:10:24.465Z,14.90
2023-09-02T07:11:24.537Z,13.60
2023-09-02T07:12:24.447Z,16.50
2023-09-02T07:13:24.449Z,16.40
2023-09-02T07:14:24.451Z,15.60
2023-09-02T07:15:24.432Z,16.30
2023-09-02T07:16:24.487Z,14.60
2023-09-02T07:17:24.483Z,13.70
2023-09-02T07:18:24.402Z,15.10
2023-09-02T07:19:24.402Z,13.10
2023-09-02T07:20:24.389Z,17.90
2023-09-02T07:21:24.383Z,18.10
2023-09-02T07:22:24.349Z,15.00
2023-09-02T07:23:24.410Z,16.60
2023-09-02T07:24:24.330Z,16.90
2023-09-02T07:25:24.315Z,15.90
2023-09-02T07:26:24.302Z,14.60
2023-09-02T07:27:24.324Z,17.10
2023-09-02T07:28:24.324Z,15.00
2023-09-02T07:29:24.290Z,14.90
2023-09-02T07:30:24.280Z,15.60
2023-09-02T07:31:24.275Z,13.00
2023-09-02T07:32:24.277Z,15.50
2023-09-02T07:33:24.332Z,15.00
2023-09-02T07:34:24.215Z,13.50
2023-09-02T07:35:24.212Z,13.10
2023-09-02T07:36:24.200Z,13.20
2023-09-02T07:37:24.265Z,13.60
2023-09-02T07:38:24.185Z,13.90
2023-09-02T07:39:24.164Z,14.80
2023-09-02T07:40:24.188Z,14.00
2023-09-02T07:41:24.188Z,13.60
2023-09-02T07:42:24.133Z,16.00
2023-09-02T07:43:24.169Z,13.50
2023-09-02T07:44:24.178Z,11.80
2023-09-02T07:45:31.782Z,14.40
2023-09-02T07:46:24.085Z,12.50
2023-09-02T07:47:24.138Z,13.90
2023-09-02T07:48:24.085Z,14.40
2023-09-02T07:49:24.060Z,16.00
2023-09-02T07:50:24.116Z,13.70
2023-09-02T07:51:24.055Z,12.50
2023-09-02T07:52:24.016Z,13.30
2023-09-02T07:53:24.048Z,11.70
2023-09-02T07:54:23.998Z,11.20
2023-09-02T07:55:23.996Z,11.60
2023-09-02T07:56:23.990Z,10.70
2023-09-02T07:57:23.980Z,8.10
2023-09-02T07:58:23.989Z,12.00
2023-09-02T07:59:23.963Z,9.50
2023-09-02T08:00:23.993Z,11.10
2023-09-02T08:01:23.963Z,13.70
2023-09-02T08:02:23.908Z,9.40
2023-09-02T08:03:24.198Z,12.30
2023-09-02T08:04:23.907Z,11.90
2023-09-02T08:05:23.891Z,12.10
2023-09-02T08:06:23.881Z,8.80
2023-09-02T08:07:23.903Z,11.00
2023-09-02T08:08:23.881Z,10.50
2023-09-02T08:09:23.846Z,11.40
2023-09-02T08:10:23.844Z,11.90
2023-09-02T08:11:23.835Z,11.60
2023-09-02T08:12:23.810Z,10.10
2023-09-02T08:13:23.813Z,8.60
2023-09-02T08:14:23.780Z,9.90
2023-09-02T08:15:23.775Z,8.70
2023-09-02T08:16:23.826Z,8.70
2023-09-02T08:17:23.756Z,9.20
2023-09-02T08:18:23.790Z,7.40
2023-09-02T08:19:23.736Z,9.20
2023-09-02T08:20:23.724Z,7.90
2023-09-02T08:21:23.736Z,8.30
2023-09-02T08:22:23.710Z,11.10
2023-09-02T08:23:23.700Z,6.70
2023-09-02T08:24:23.705Z,8.10
2023-09-02T08:25:23.686Z,7.60
2023-09-02T08:26:23.664Z,8.10
2023-09-02T08:27:23.678Z,8.60
2023-09-02T08:28:23.626Z,7.70
2023-09-02T08:29:23.666Z,8.70
2023-09-02T08:30:23.620Z,8.10
2023-09-02T08:31:23.669Z,8.00
2023-09-02T08:32:23.609Z,6.20
2023-09-02T08:33:23.612Z,9.40
2023-09-02T08:34:23.591Z,6.90
2023-09-02T08:35:23.617Z,6.50
2023-09-02T08:36:23.557Z,6.30
2023-09-02T08:37:23.538Z,6.80
2023-09-02T08:38:23.592Z,6.50
2023-09-02T08:39:23.522Z,8.40
2023-09-02T08:40:23.526Z,9.20
2023-09-02T08:41:23.515Z,6.10
2023-09-02T08:42:23.486Z,7.50
2023-09-02T08:43:23.525Z,7.50
2023-09-02T08:44:23.474Z,7.90
2023-09-02T08:45:23.584Z,6.40
2023-09-02T08:46:23.466Z,6.20
2023-09-02T08:47:23.472Z,7.70
2023-09-02T08:48:26.302Z,6.80
2023-09-02T08:49:23.420Z,6.20
2023-09-02T08:50:23.409Z,6.30
2023-09-02T08:51:23.465Z,5.60
2023-09-02T08:52:23.404Z,7.90
2023-09-02T08:53:23.379Z,7.90
2023-09-02T08:54:23.374Z,7.00
2023-09-02T08:55:23.386Z,6.80
2023-09-02T08:56:23.366Z,6.90
2023-09-02T08:57:23.384Z,9.60
2023-09-02T08:58:23.315Z,8.00
2023-09-02T08:59:23.311Z,6.20
2023-09-02T09:00:23.302Z,6.20
2023-09-02T09:01:23.387Z,6.40
2023-09-02T09:02:23.277Z,6.30
2023-09-02T09:03:23.282Z,7.10
2023-09-02T09:04:23.284Z,6.50
2023-09-02T09:05:23.280Z,8.20
2023-09-02T09:06:23.248Z,7.70
2023-09-02T09:07:23.249Z,5.90
2023-09-02T09:08:23.221Z,7.80
2023-09-02T09:09:23.216Z,6.00
2023-09-02T09:10:23.218Z,5.20
2023-09-02T09:11:23.188Z,5.40
2023-09-02T09:12:23.200Z,6.80
2023-09-02T09:13:23.168Z,5.50
2023-09-02T09:14:23.181Z,7.70
2023-09-02T09:15:23.142Z,7.00
2023-09-02T09:16:23.208Z,6.70
2023-09-02T09:17:23.188Z,7.00
2023-09-02T09:18:23.108Z,6.70
2023-09-02T09:19:23.106Z,7.80
2023-09-02T09:20:23.097Z,8.50
2023-09-02T09:21:23.082Z,5.90
2023-09-02T09:22:23.086Z,7.10
2023-09-02T09:23:23.092Z,7.70
2023-09-02T09:24:23.100Z,6.40
2023-09-02T09:25:23.045Z,7.80
2023-09-02T09:26:23.048Z,6.90
2023-09-02T09:27:23.019Z,6.70
2023-09-02T09:28:22.999Z,8.10
2023-09-02T09:29:23.021Z,7.40
2023-09-02T09:30:23.006Z,6.30
2023-09-02T09:31:22.986Z,8.20
2023-09-02T09:32:22.971Z,7.00
2023-09-02T09:33:23.157Z,5.50
2023-09-02T09:34:22.963Z,6.30
2023-09-02T09:35:22.928Z,7.60
2023-09-02T09:36:22.920Z,7.00
2023-09-02T09:37:22.896Z,7.00
2023-09-02T09:38:22.927Z,8.60
2023-09-02T09:39:22.906Z,5.30
2023-09-02T09:40:22.878Z,8.50
2023-09-02T09:41:22.879Z,7.10
2023-09-02T09:42:22.867Z,5.60
2023-09-02T09:43:22.835Z,6.90
2023-09-02T09:44:22.860Z,6.90
2023-09-02T09:45:22.835Z,7.00
2023-09-02T09:46:22.871Z,7.40
2023-09-02T09:47:22.863Z,6.20
2023-09-02T09:48:22.817Z,6.40
2023-09-02T09:49:22.791Z,7.90
2023-09-02T09:50:22.767Z,5.80
2023-09-02T09:51:22.763Z,7.50
2023-09-02T09:52:22.759Z,6.70
2023-09-02T09:53:22.741Z,6.20
2023-09-02T09:54:22.742Z,7.90
2023-09-02T09:55:22.710Z,6.70
2023-09-02T09:56:22.727Z,6.60
2023-09-02T09:57:22.697Z,5.40
2023-09-02T09:58:22.710Z,6.70
2023-09-02T09:59:22.691Z,5.90
2023-09-02T10:00:22.715Z,6.80
2023-09-02T10:01:22.774Z,5.60
2023-09-02T10:02:22.668Z,6.60
2023-09-02T10:03:22.647Z,6.60
2023-09-02T10:04:22.661Z,6.30
2023-09-02T10:05:22.637Z,6.40
2023-09-02T10:06:22.633Z,6.50
2023-09-02T10:07:22.616Z,8.30
2023-09-02T10:08:22.579Z,6.80
2023-09-02T10:09:22.558Z,7.50
2023-09-02T10:10:22.550Z,6.10
2023-09-02T10:11:22.545Z,4.80
2023-09-02T10:12:22.539Z,5.60
2023-09-02T10:13:22.517Z,6.20
2023-09-02T10:14:22.525Z,6.60
2023-09-02T10:15:22.494Z,5.00
2023-09-02T10:16:22.534Z,6.10
2023-09-02T10:17:22.510Z,8.10
2023-09-02T10:18:22.518Z,5.70
2023-09-02T10:19:22.477Z,5.90
2023-09-02T10:20:22.440Z,5.10
2023-09-02T10:21:22.456Z,7.30
2023-09-02T10:22:22.494Z,5.60
2023-09-02T10:23:22.424Z,5.50
2023-09-02T10:24:22.406Z,5.90
2023-09-02T10:25:22.392Z,5.10
2023-09-02T10:26:22.380Z,6.20
2023-09-02T10:27:22.371Z,6.20
2023-09-02T10:28:22.392Z,6.40
2023-09-02T10:29:22.385Z,6.50
2023-09-02T10:30:22.364Z,6.30
2023-09-02T10:31:22.351Z,5.80
2023-09-02T10:32:22.403Z,6.20
2023-09-02T10:33:22.314Z,5.40
2023-09-02T10:34:22.320Z,5.70
2023-09-02T10:35:22.286Z,8.60
2023-09-02T10:36:22.272Z,4.70
2023-09-02T10:37:22.283Z,6.40
2023-09-02T10:38:22.307Z,5.10
2023-09-02T10:39:22.239Z,7.10
2023-09-02T10:40:22.232Z,6.50
2023-09-02T10:41:22.230Z,4.90
2023-09-02T10:42:22.236Z,6.50
2023-09-02T10:43:22.224Z,5.70
2023-09-02T10:44:22.199Z,6.30
2023-09-02T10:45:22.208Z,5.80
2023-09-02T10:46:22.184Z,5.50
2023-09-02T10:47:22.161Z,5.60
2023-09-02T10:48:22.164Z,4.60
2023-09-02T10:49:22.164Z,7.30
2023-09-02T10:50:22.152Z,5.10
2023-09-02T10:51:22.135Z,5.50
2023-09-02T10:52:22.114Z,6.50
2023-09-02T10:53:22.084Z,6.60
2023-09-02T10:54:22.132Z,6.50
2023-09-02T10:55:22.097Z,4.90
2023-09-02T10:56:22.115Z,5.90
2023-09-02T10:57:22.060Z,5.70
2023-09-02T10:58:22.041Z,4.90
2023-09-02T10:59:22.095Z,5.80
2023-09-02T11:00:22.089Z,5.40
2023-09-02T11:01:22.120Z,6.50
2023-09-02T11:02:22.107Z,5.70
2023-09-02T11:03:22.102Z,5.90
2023-09-02T11:04:21.991Z,5.70
2023-09-02T11:05:21.981Z,6.70
2023-09-02T11:06:21.968Z,5.10
2023-09-02T11:07:21.980Z,6.30
2023-09-02T11:08:21.952Z,6.20
2023-09-02T11:09:21.963Z,4.80
2023-09-02T11:10:21.947Z,4.80
2023-09-02T11:11:22.030Z,7.40
2023-09-02T11:12:21.914Z,5.80
2023-09-02T11:13:22.183Z,5.30
2023-09-02T11:14:21.923Z,5.50
2023-09-02T11:15:21.897Z,5.20
2023-09-02T11:16:21.889Z,5.50
2023-09-02T11:17:22.536Z,6.30
2023-09-02T11:18:21.914Z,5.10
2023-09-02T11:19:21.824Z,5.20
2023-09-02T11:20:21.812Z,5.80
2023-09-02T11:21:21.826Z,5.90
2023-09-02T11:22:21.796Z,7.00
2023-09-02T11:23:21.792Z,7.10
2023-09-02T11:24:21.815Z,6.70
2023-09-02T11:25:21.757Z,6.00
2023-09-02T11:26:21.765Z,7.00
2023-09-02T11:27:21.743Z,4.90
2023-09-02T11:28:21.757Z,7.40
2023-09-02T11:29:21.724Z,7.40
2023-09-02T11:30:21.722Z,5.10
2023-09-02T11:31:21.768Z,5.20
2023-09-02T11:32:21.706Z,8.20
2023-09-02T11:33:22.143Z,5.80
2023-09-02T11:34:21.699Z,5.70
2023-09-02T11:35:22.573Z,4.70
2023-09-02T11:36:21.673Z,5.10
2023-09-02T11:37:21.639Z,5.00
2023-09-02T11:38:21.621Z,5.90
2023-09-02T11:39:21.615Z,6.20
2023-09-02T11:40:21.623Z,7.90
2023-09-02T11:41:24.512Z,4.80
2023-09-02T11:42:21.586Z,4.30
2023-09-02T11:43:21.845Z,5.30
2023-09-02T11:44:21.576Z,6.10
2023-09-02T11:45:21.557Z,4.60
2023-09-02T11:46:21.666Z,5.50
2023-09-02T11:47:21.617Z,6.10
2023-09-02T11:48:21.513Z,5.70
2023-09-02T11:49:21.509Z,7.00
2023-09-02T11:50:21.491Z,5.70
2023-09-02T11:51:21.497Z,5.20
2023-09-02T11:52:21.516Z,6.00
2023-09-02T11:53:21.573Z,5.00
2023-09-02T11:54:21.503Z,5.70
2023-09-02T11:55:21.448Z,5.30
2023-09-02T11:56:21.484Z,5.90
2023-09-02T11:57:21.429Z,7.90
2023-09-02T11:58:21.421Z,5.60
2023-09-02T11:59:21.390Z,9.80
2023-09-02T12:00:21.417Z,7.80
2023-09-02T12:01:21.390Z,6.00
2023-09-02T12:02:21.393Z,6.00
2023-09-02T12:03:21.676Z,7.40
2023-09-02T12:04:21.356Z,5.40
2023-09-02T12:05:21.341Z,8.50
2023-09-02T12:06:21.318Z,5.80
2023-09-02T12:07:21.302Z,7.00
2023-09-02T12:08:21.325Z,5.80
2023-09-02T12:09:21.281Z,4.20
2023-09-02T12:10:21.283Z,6.40
2023-09-02T12:11:21.259Z,5.20
2023-09-02T12:12:21.252Z,7.00
2023-09-02T12:13:21.624Z,6.00
2023-09-02T12:14:21.254Z,6.50
2023-09-02T12:15:21.240Z,5.00
2023-09-02T12:16:23.320Z,7.80
2023-09-02T12:17:21.245Z,5.20
2023-09-02T12:18:21.273Z,8.10
2023-09-02T12:19:21.195Z,6.90
2023-09-02T12:20:21.183Z,6.80
2023-09-02T12:21:21.166Z,7.10
2023-09-02T12:22:21.806Z,5.10
2023-09-02T12:23:21.379Z,5.00
2023-09-02T12:24:21.159Z,4.80
2023-09-02T12:25:21.117Z,7.90
2023-09-02T12:26:21.095Z,5.70
2023-09-02T12:27:21.092Z,5.10
2023-09-02T12:28:21.092Z,5.80
2023-09-02T12:29:21.109Z,6.30
2023-09-02T12:30:21.108Z,7.00
2023-09-02T12:31:21.128Z,5.70
2023-09-02T12:32:21.206Z,6.00
2023-09-02T12:33:21.310Z,6.00
2023-09-02T12:34:21.044Z,6.20
2023-09-02T12:35:21.060Z,5.40
2023-09-02T12:36:21.001Z,5.50
2023-09-02T12:37:20.985Z,7.50
2023-09-02T12:38:21.076Z,6.20
2023-09-02T12:39:20.968Z,5.60
2023-09-02T12:40:20.946Z,6.70
2023-09-02T12:41:20.955Z,7.10
2023-09-02T12:42:20.934Z,6.20
2023-09-02T12:43:21.014Z,5.20
2023-09-02T12:44:20.930Z,4.90
2023-09-02T12:45:20.901Z,8.00
2023-09-02T12:46:20.992Z,5.70
2023-09-02T12:47:20.871Z,4.60
2023-09-02T12:48:20.865Z,5.40
2023-09-02T12:49:20.842Z,5.60
2023-09-02T12:50:20.850Z,6.30
2023-09-02T12:51:20.837Z,4.60
2023-09-02T12:52:20.826Z,6.70
2023-09-02T12:53:21.088Z,5.20
2023-09-02T12:54:20.813Z,5.80
2023-09-02T12:55:20.789Z,5.60
2023-09-02T12:56:20.780Z,5.40
2023-09-02T12:57:20.774Z,6.40
2023-09-02T12:58:20.772Z,4.80
2023-09-02T12:59:20.751Z,5.50
2023-09-02T13:00:20.746Z,6.20
2023-09-02T13:01:20.777Z,5.60
2023-09-02T13:02:20.806Z,4.50